sensor_id;sensor_type;location;lat;lon;timestamp;temperature;humidity
18103;DHT22;9178;51.120;6.192;2023-02-08T00:01:52;0.00;99.90
18103;DHT22;9178;51.120;6.192;2023-02-08T00:04:19;0.00;99.90
18103;DHT22;9178;51.120;6.192;2023-02-08T00:06:48;-0.10;99.90
18103;DHT22;9178;51.120;6.192;2023-02-08T00:09:14;0.00;99.90
18103;DHT22;9178;51.120;6.192;2023-02-08T00:11:41;0.00;99.90
18103;DHT22;9178;51.120;6.192;2023-02-08T00:14:08;0.00;99.90
18103;DHT22;9178;51.120;6.192;2023-02-08T00:16:35;0.00;99.90
18103;DHT22;9178;51.120;6.192;2023-02-08T00:19:02;-0.10;99.90
18103;DHT22;9178;51.120;6.192;2023-02-08T00:21:29;-0.10;99.90
18103;DHT22;9178;51.120;6.192;2023-02-08T00:23:57;-0.10;99.90
18103;DHT22;9178;51.120;6.192;2023-02-08T00:26:24;-0.10;99.90
18103;DHT22;9178;51.120;6.192;2023-02-08T00:28:51;-0.10;99.90
18103;DHT22;9178;51.120;6.192;2023-02-08T00:31:18;-0.20;99.90
18103;DHT22;9178;51.120;6.192;2023-02-08T00:33:45;-0.20;99.90
18103;DHT22;9178;51.120;6.192;2023-02-08T00:36:12;-0.20;99.90
18103;DHT22;9178;51.120;6.192;2023-02-08T00:38:39;-0.30;99.90
18103;DHT22;9178;51.120;6.192;2023-02-08T00:41:08;-0.30;99.90
18103;DHT22;9178;51.120;6.192;2023-02-08T00:43:35;-0.40;99.90
18103;DHT22;9178;51.120;6.192;2023-02-08T00:46:01;-0.40;99.90
18103;DHT22;9178;51.120;6.192;2023-02-08T00:48:28;-0.50;99.90
18103;DHT22;9178;51.120;6.192;2023-02-08T00:50:57;-0.50;99.90
18103;DHT22;9178;51.120;6.192;2023-02-08T00:53:24;-0.50;99.90
18103;DHT22;9178;51.120;6.192;2023-02-08T00:55:51;-0.50;99.90
18103;DHT22;9178;51.120;6.192;2023-02-08T00:58:20;-0.60;99.90
18103;DHT22;9178;51.120;6.192;2023-02-08T01:00:50;-0.60;99.90
18103;DHT22;9178;51.120;6.192;2023-02-08T01:03:17;-0.60;99.90
18103;DHT22;9178;51.120;6.192;2023-02-08T01:05:44;-0.60;99.90
18103;DHT22;9178;51.120;6.192;2023-02-08T01:08:11;-0.60;99.90
18103;DHT22;9178;51.120;6.192;2023-02-08T01:10:38;-0.60;99.90
18103;DHT22;9178;51.120;6.192;2023-02-08T01:13:05;-0.60;99.90
18103;DHT22;9178;51.120;6.192;2023-02-08T01:15:33;-0.60;99.90
18103;DHT22;9178;51.120;6.192;2023-02-08T01:18:00;-0.60;99.90
18103;DHT22;9178;51.120;6.192;2023-02-08T01:20:27;-0.60;99.90
18103;DHT22;9178;51.120;6.192;2023-02-08T01:22:55;-0.60;99.90
18103;DHT22;9178;51.120;6.192;2023-02-08T01:25:22;-0.60;99.90
18103;DHT22;9178;51.120;6.192;2023-02-08T01:27:49;-0.70;99.90
18103;DHT22;9178;51.120;6.192;2023-02-08T01:30:16;-0.60;99.90
18103;DHT22;9178;51.120;6.192;2023-02-08T01:32:44;-0.60;99.90
18103;DHT22;9178;51.120;6.192;2023-02-08T01:35:11;-0.70;99.90
18103;DHT22;9178;51.120;6.192;2023-02-08T01:37:38;-0.70;99.90
18103;DHT22;9178;51.120;6.192;2023-02-08T01:40:06;-0.80;99.90
18103;DHT22;9178;51.120;6.192;2023-02-08T01:42:33;-0.80;99.90
18103;DHT22;9178;51.120;6.192;2023-02-08T01:45:28;-0.80;99.90
18103;DHT22;9178;51.120;6.192;2023-02-08T01:48:03;-0.80;99.90
18103;DHT22;9178;51.120;6.192;2023-02-08T01:50:35;-0.80;99.90
18103;DHT22;9178;51.120;6.192;2023-02-08T01:53:04;-0.80;99.90
18103;DHT22;9178;51.120;6.192;2023-02-08T01:55:33;-0.70;99.90
18103;DHT22;9178;51.120;6.192;2023-02-08T01:58:03;-0.70;99.90
18103;DHT22;9178;51.120;6.192;2023-02-08T02:00:31;-0.80;99.90
18103;DHT22;9178;51.120;6.192;2023-02-08T02:03:00;-0.80;99.90
18103;DHT22;9178;51.120;6.192;2023-02-08T02:05:33;-0.80;99.90
18103;DHT22;9178;51.120;6.192;2023-02-08T02:08:00;-0.80;99.90
18103;DHT22;9178;51.120;6.192;2023-02-08T02:10:29;-0.80;99.90
18103;DHT22;9178;51.120;6.192;2023-02-08T02:13:01;-0.80;99.90
18103;DHT22;9178;51.120;6.192;2023-02-08T02:15:28;-0.80;99.90
18103;DHT22;9178;51.120;6.192;2023-02-08T02:17:55;-0.70;99.90
18103;DHT22;9178;51.120;6.192;2023-02-08T02:20:32;-0.70;99.90
18103;DHT22;9178;51.120;6.192;2023-02-08T02:23:26;-0.80;99.90
18103;DHT22;9178;51.120;6.192;2023-02-08T02:26:19;-0.70;99.90
18103;DHT22;9178;51.120;6.192;2023-02-08T02:32:03;-0.80;99.90
18103;DHT22;9178;51.120;6.192;2023-02-08T02:34:38;-0.80;99.90
18103;DHT22;9178;51.120;6.192;2023-02-08T02:37:12;-0.80;99.90
18103;DHT22;9178;51.120;6.192;2023-02-08T02:39:44;-0.90;99.90
18103;DHT22;9178;51.120;6.192;2023-02-08T02:42:17;-0.80;99.90
18103;DHT22;9178;51.120;6.192;2023-02-08T02:45:09;-0.90;99.90
18103;DHT22;9178;51.120;6.192;2023-02-08T02:47:44;-0.90;99.90
18103;DHT22;9178;51.120;6.192;2023-02-08T02:50:21;-1.00;99.90
18103;DHT22;9178;51.120;6.192;2023-02-08T02:52:56;-1.10;99.90
18103;DHT22;9178;51.120;6.192;2023-02-08T02:55:25;-1.10;99.90
18103;DHT22;9178;51.120;6.192;2023-02-08T02:57:54;-1.20;99.90
18103;DHT22;9178;51.120;6.192;2023-02-08T03:00:23;-1.20;99.90
18103;DHT22;9178;51.120;6.192;2023-02-08T03:02:54;-1.20;99.90
18103;DHT22;9178;51.120;6.192;2023-02-08T03:05:23;-1.20;99.90
18103;DHT22;9178;51.120;6.192;2023-02-08T03:08:00;-1.20;99.90
18103;DHT22;9178;51.120;6.192;2023-02-08T03:10:49;-1.20;99.90
18103;DHT22;9178;51.120;6.192;2023-02-08T03:13:26;-1.20;99.90
18103;DHT22;9178;51.120;6.192;2023-02-08T03:16:08;-1.20;99.90
18103;DHT22;9178;51.120;6.192;2023-02-08T03:18:46;-1.20;99.90
18103;DHT22;9178;51.120;6.192;2023-02-08T03:21:18;-1.20;99.90
18103;DHT22;9178;51.120;6.192;2023-02-08T03:23:51;-1.30;99.90
18103;DHT22;9178;51.120;6.192;2023-02-08T03:26:31;-1.30;99.90
18103;DHT22;9178;51.120;6.192;2023-02-08T03:29:04;-1.20;99.90
18103;DHT22;9178;51.120;6.192;2023-02-08T03:31:40;-1.20;99.90
18103;DHT22;9178;51.120;6.192;2023-02-08T03:34:13;-1.20;99.90
18103;DHT22;9178;51.120;6.192;2023-02-08T03:36:46;-1.20;99.90
18103;DHT22;9178;51.120;6.192;2023-02-08T03:39:18;-1.20;99.90
18103;DHT22;9178;51.120;6.192;2023-02-08T03:41:49;-1.20;99.90
18103;DHT22;9178;51.120;6.192;2023-02-08T03:44:20;-1.20;99.90
18103;DHT22;9178;51.120;6.192;2023-02-08T03:46:51;-1.30;99.90
18103;DHT22;9178;51.120;6.192;2023-02-08T03:49:25;-1.30;99.90
18103;DHT22;9178;51.120;6.192;2023-02-08T03:51:54;-1.30;99.90
18103;DHT22;9178;51.120;6.192;2023-02-08T03:54:25;-1.30;99.90
18103;DHT22;9178;51.120;6.192;2023-02-08T03:56:56;-1.30;99.90
18103;DHT22;9178;51.120;6.192;2023-02-08T03:59:31;-1.30;99.90
18103;DHT22;9178;51.120;6.192;2023-02-08T04:02:00;-1.20;99.90
18103;DHT22;9178;51.120;6.192;2023-02-08T04:04:39;-1.20;99.90
18103;DHT22;9178;51.120;6.192;2023-02-08T04:07:08;-1.20;99.90
18103;DHT22;9178;51.120;6.192;2023-02-08T04:09:35;-1.20;99.90
18103;DHT22;9178;51.120;6.192;2023-02-08T04:12:02;-1.20;99.90
18103;DHT22;9178;51.120;6.192;2023-02-08T04:14:29;-1.30;99.90
18103;DHT22;9178;51.120;6.192;2023-02-08T04:16:56;-1.30;99.90
18103;DHT22;9178;51.120;6.192;2023-02-08T04:19:23;-1.30;99.90
18103;DHT22;9178;51.120;6.192;2023-02-08T04:21:51;-1.30;99.90
18103;DHT22;9178;51.120;6.192;2023-02-08T04:24:18;-1.30;99.90
18103;DHT22;9178;51.120;6.192;2023-02-08T04:26:45;-1.30;99.90
18103;DHT22;9178;51.120;6.192;2023-02-08T04:29:12;-1.40;99.90
18103;DHT22;9178;51.120;6.192;2023-02-08T04:31:39;-1.30;99.90
18103;DHT22;9178;51.120;6.192;2023-02-08T04:34:06;-1.30;99.90
18103;DHT22;9178;51.120;6.192;2023-02-08T04:36:32;-1.40;99.90
18103;DHT22;9178;51.120;6.192;2023-02-08T04:39:04;-1.40;99.90
18103;DHT22;9178;51.120;6.192;2023-02-08T04:41:31;-1.40;99.90
18103;DHT22;9178;51.120;6.192;2023-02-08T04:43:58;-1.40;99.90
18103;DHT22;9178;51.120;6.192;2023-02-08T04:46:27;-1.40;99.90
18103;DHT22;9178;51.120;6.192;2023-02-08T04:48:54;-1.40;99.90
18103;DHT22;9178;51.120;6.192;2023-02-08T04:51:21;-1.50;99.90
18103;DHT22;9178;51.120;6.192;2023-02-08T04:53:48;-1.50;99.90
18103;DHT22;9178;51.120;6.192;2023-02-08T04:56:16;-1.50;99.90
18103;DHT22;9178;51.120;6.192;2023-02-08T04:58:43;-1.60;99.90
18103;DHT22;9178;51.120;6.192;2023-02-08T05:01:10;-1.60;99.90
18103;DHT22;9178;51.120;6.192;2023-02-08T05:03:37;-1.60;99.90
18103;DHT22;9178;51.120;6.192;2023-02-08T05:06:05;-1.60;99.90
18103;DHT22;9178;51.120;6.192;2023-02-08T05:08:32;-1.70;99.90
18103;DHT22;9178;51.120;6.192;2023-02-08T05:10:59;-1.70;99.90
18103;DHT22;9178;51.120;6.192;2023-02-08T05:13:27;-1.70;99.90
18103;DHT22;9178;51.120;6.192;2023-02-08T05:15:54;-1.70;99.90
18103;DHT22;9178;51.120;6.192;2023-02-08T05:18:21;-1.70;99.90
18103;DHT22;9178;51.120;6.192;2023-02-08T05:20:54;-1.70;99.90
18103;DHT22;9178;51.120;6.192;2023-02-08T05:23:21;-1.70;99.90
18103;DHT22;9178;51.120;6.192;2023-02-08T05:25:47;-1.70;99.90
18103;DHT22;9178;51.120;6.192;2023-02-08T05:28:14;-1.70;99.90
18103;DHT22;9178;51.120;6.192;2023-02-08T05:30:43;-1.70;99.90
18103;DHT22;9178;51.120;6.192;2023-02-08T05:33:10;-1.70;99.90
18103;DHT22;9178;51.120;6.192;2023-02-08T05:35:37;-1.70;99.90
18103;DHT22;9178;51.120;6.192;2023-02-08T05:38:04;-1.70;99.90
18103;DHT22;9178;51.120;6.192;2023-02-08T05:40:31;-1.60;99.90
18103;DHT22;9178;51.120;6.192;2023-02-08T05:42:58;-1.60;99.90
18103;DHT22;9178;51.120;6.192;2023-02-08T05:45:25;-1.60;99.90
18103;DHT22;9178;51.120;6.192;2023-02-08T05:47:53;-1.60;99.90
18103;DHT22;9178;51.120;6.192;2023-02-08T05:50:20;-1.60;99.90
18103;DHT22;9178;51.120;6.192;2023-02-08T05:52:47;-1.60;99.90
18103;DHT22;9178;51.120;6.192;2023-02-08T05:55:14;-1.60;99.90
18103;DHT22;9178;51.120;6.192;2023-02-08T05:57:41;-1.60;99.90
18103;DHT22;9178;51.120;6.192;2023-02-08T06:00:09;-1.60;99.90
18103;DHT22;9178;51.120;6.192;2023-02-08T06:02:37;-1.60;99.90
18103;DHT22;9178;51.120;6.192;2023-02-08T06:05:06;-1.70;99.90
18103;DHT22;9178;51.120;6.192;2023-02-08T06:07:33;-1.70;99.90
18103;DHT22;9178;51.120;6.192;2023-02-08T06:09:59;-1.60;99.90
18103;DHT22;9178;51.120;6.192;2023-02-08T06:12:26;-1.70;99.90
18103;DHT22;9178;51.120;6.192;2023-02-08T06:14:54;-1.70;99.90
18103;DHT22;9178;51.120;6.192;2023-02-08T06:17:20;-1.70;99.90
18103;DHT22;9178;51.120;6.192;2023-02-08T06:19:47;-1.70;99.90
18103;DHT22;9178;51.120;6.192;2023-02-08T06:22:15;-1.70;99.90
18103;DHT22;9178;51.120;6.192;2023-02-08T06:24:42;-1.70;99.90
18103;DHT22;9178;51.120;6.192;2023-02-08T06:27:09;-1.80;99.90
18103;DHT22;9178;51.120;6.192;2023-02-08T06:29:36;-1.70;99.90
18103;DHT22;9178;51.120;6.192;2023-02-08T06:32:03;-1.80;99.90
18103;DHT22;9178;51.120;6.192;2023-02-08T06:34:30;-1.80;99.90
18103;DHT22;9178;51.120;6.192;2023-02-08T06:36:57;-1.80;99.90
18103;DHT22;9178;51.120;6.192;2023-02-08T06:39:28;-1.80;99.90
18103;DHT22;9178;51.120;6.192;2023-02-08T06:41:55;-1.80;99.90
18103;DHT22;9178;51.120;6.192;2023-02-08T06:44:22;-1.80;99.90
18103;DHT22;9178;51.120;6.192;2023-02-08T06:46:51;-1.80;99.90
18103;DHT22;9178;51.120;6.192;2023-02-08T06:49:18;-1.80;99.90
18103;DHT22;9178;51.120;6.192;2023-02-08T06:51:45;-1.80;99.90
18103;DHT22;9178;51.120;6.192;2023-02-08T06:54:12;-1.80;99.90
18103;DHT22;9178;51.120;6.192;2023-02-08T06:56:43;-1.80;99.90
18103;DHT22;9178;51.120;6.192;2023-02-08T06:59:10;-1.80;99.90
18103;DHT22;9178;51.120;6.192;2023-02-08T07:01:38;-1.80;99.90
18103;DHT22;9178;51.120;6.192;2023-02-08T07:04:05;-1.80;99.90
18103;DHT22;9178;51.120;6.192;2023-02-08T07:06:32;-1.80;99.90
18103;DHT22;9178;51.120;6.192;2023-02-08T07:08:59;-1.80;99.90
18103;DHT22;9178;51.120;6.192;2023-02-08T07:11:27;-1.80;99.90
18103;DHT22;9178;51.120;6.192;2023-02-08T07:13:55;-1.80;99.90
18103;DHT22;9178;51.120;6.192;2023-02-08T07:16:22;-1.80;99.90
18103;DHT22;9178;51.120;6.192;2023-02-08T07:18:49;-1.80;99.90
18103;DHT22;9178;51.120;6.192;2023-02-08T07:21:15;-1.80;99.90
18103;DHT22;9178;51.120;6.192;2023-02-08T07:23:42;-1.70;99.90
18103;DHT22;9178;51.120;6.192;2023-02-08T07:26:10;-1.50;99.90
18103;DHT22;9178;51.120;6.192;2023-02-08T07:28:39;-1.20;99.90
18103;DHT22;9178;51.120;6.192;2023-02-08T07:31:08;-0.80;99.90
18103;DHT22;9178;51.120;6.192;2023-02-08T07:33:36;-0.40;99.90
18103;DHT22;9178;51.120;6.192;2023-02-08T07:36:03;-0.10;99.90
18103;DHT22;9178;51.120;6.192;2023-02-08T07:38:32;0.00;99.90
18103;DHT22;9178;51.120;6.192;2023-02-08T07:41:00;-0.10;99.90
18103;DHT22;9178;51.120;6.192;2023-02-08T07:43:27;-0.30;99.90
18103;DHT22;9178;51.120;6.192;2023-02-08T07:45:54;-0.50;99.90
18103;DHT22;9178;51.120;6.192;2023-02-08T07:48:22;-0.60;99.90
18103;DHT22;9178;51.120;6.192;2023-02-08T07:50:49;-0.70;99.90
18103;DHT22;9178;51.120;6.192;2023-02-08T07:53:19;-0.80;99.90
18103;DHT22;9178;51.120;6.192;2023-02-08T07:55:46;-0.80;99.90
18103;DHT22;9178;51.120;6.192;2023-02-08T07:58:13;-0.90;99.90
18103;DHT22;9178;51.120;6.192;2023-02-08T08:00:40;-0.90;99.90
18103;DHT22;9178;51.120;6.192;2023-02-08T08:03:08;-0.90;99.90
18103;DHT22;9178;51.120;6.192;2023-02-08T08:05:38;-0.90;99.90
18103;DHT22;9178;51.120;6.192;2023-02-08T08:08:05;-0.90;99.90
18103;DHT22;9178;51.120;6.192;2023-02-08T08:10:32;-0.90;99.90
18103;DHT22;9178;51.120;6.192;2023-02-08T08:12:59;-0.80;99.90
18103;DHT22;9178;51.120;6.192;2023-02-08T08:15:26;-0.70;99.90
18103;DHT22;9178;51.120;6.192;2023-02-08T08:17:53;-0.70;99.90
18103;DHT22;9178;51.120;6.192;2023-02-08T08:20:20;-0.70;99.90
18103;DHT22;9178;51.120;6.192;2023-02-08T08:22:49;-0.70;99.90
18103;DHT22;9178;51.120;6.192;2023-02-08T08:25:16;-0.60;99.90
18103;DHT22;9178;51.120;6.192;2023-02-08T08:27:43;-0.60;99.90
18103;DHT22;9178;51.120;6.192;2023-02-08T08:30:12;-0.50;99.90
18103;DHT22;9178;51.120;6.192;2023-02-08T08:32:39;-0.40;99.90
18103;DHT22;9178;51.120;6.192;2023-02-08T08:35:07;-0.40;99.90
18103;DHT22;9178;51.120;6.192;2023-02-08T08:37:34;-0.30;99.90
18103;DHT22;9178;51.120;6.192;2023-02-08T08:40:04;-0.20;99.90
18103;DHT22;9178;51.120;6.192;2023-02-08T08:42:32;0.20;99.90
18103;DHT22;9178;51.120;6.192;2023-02-08T08:44:59;0.80;99.90
18103;DHT22;9178;51.120;6.192;2023-02-08T08:47:26;1.50;99.90
18103;DHT22;9178;51.120;6.192;2023-02-08T08:49:53;2.20;99.90
18103;DHT22;9178;51.120;6.192;2023-02-08T08:52:20;2.60;99.90
18103;DHT22;9178;51.120;6.192;2023-02-08T08:54:47;2.30;99.90
18103;DHT22;9178;51.120;6.192;2023-02-08T08:57:16;2.20;99.90
18103;DHT22;9178;51.120;6.192;2023-02-08T08:59:43;2.50;99.90
18103;DHT22;9178;51.120;6.192;2023-02-08T09:02:11;2.80;99.90
18103;DHT22;9178;51.120;6.192;2023-02-08T09:04:38;3.60;99.90
18103;DHT22;9178;51.120;6.192;2023-02-08T09:07:07;3.40;99.90
18103;DHT22;9178;51.120;6.192;2023-02-08T09:09:34;3.50;99.90
18103;DHT22;9178;51.120;6.192;2023-02-08T09:12:02;3.50;99.90
18103;DHT22;9178;51.120;6.192;2023-02-08T09:14:30;3.40;99.90
18103;DHT22;9178;51.120;6.192;2023-02-08T09:16:57;3.10;99.90
18103;DHT22;9178;51.120;6.192;2023-02-08T09:19:24;3.30;99.90
18103;DHT22;9178;51.120;6.192;2023-02-08T09:21:52;3.40;99.90
18103;DHT22;9178;51.120;6.192;2023-02-08T09:24:21;3.30;99.90
18103;DHT22;9178;51.120;6.192;2023-02-08T09:26:48;3.20;99.90
18103;DHT22;9178;51.120;6.192;2023-02-08T09:29:15;3.50;99.90
18103;DHT22;9178;51.120;6.192;2023-02-08T09:31:43;3.60;99.90
18103;DHT22;9178;51.120;6.192;2023-02-08T09:34:10;3.60;99.90
18103;DHT22;9178;51.120;6.192;2023-02-08T09:36:39;3.80;99.90
18103;DHT22;9178;51.120;6.192;2023-02-08T09:39:09;4.00;99.90
18103;DHT22;9178;51.120;6.192;2023-02-08T09:44:27;5.20;99.90
18103;DHT22;9178;51.120;6.192;2023-02-08T09:47:02;6.30;99.90
18103;DHT22;9178;51.120;6.192;2023-02-08T09:49:34;6.70;99.90
18103;DHT22;9178;51.120;6.192;2023-02-08T09:52:07;7.20;99.90
18103;DHT22;9178;51.120;6.192;2023-02-08T09:54:38;7.20;99.90
18103;DHT22;9178;51.120;6.192;2023-02-08T09:57:10;7.20;99.90
18103;DHT22;9178;51.120;6.192;2023-02-08T09:59:48;7.10;99.90
18103;DHT22;9178;51.120;6.192;2023-02-08T10:02:23;7.10;99.90
18103;DHT22;9178;51.120;6.192;2023-02-08T10:04:57;6.70;99.90
18103;DHT22;9178;51.120;6.192;2023-02-08T10:07:26;6.20;99.90
18103;DHT22;9178;51.120;6.192;2023-02-08T10:09:56;5.70;99.90
18103;DHT22;9178;51.120;6.192;2023-02-08T10:12:31;5.40;99.90
18103;DHT22;9178;51.120;6.192;2023-02-08T10:15:08;5.30;99.90
18103;DHT22;9178;51.120;6.192;2023-02-08T10:18:06;5.70;99.90
18103;DHT22;9178;51.120;6.192;2023-02-08T10:20:43;6.00;99.90
18103;DHT22;9178;51.120;6.192;2023-02-08T10:23:27;5.90;99.90
18103;DHT22;9178;51.120;6.192;2023-02-08T10:26:12;6.10;99.90
18103;DHT22;9178;51.120;6.192;2023-02-08T10:29:09;6.40;99.90
18103;DHT22;9178;51.120;6.192;2023-02-08T10:32:05;7.00;99.90
18103;DHT22;9178;51.120;6.192;2023-02-08T10:34:43;7.40;99.90
18103;DHT22;9178;51.120;6.192;2023-02-08T10:37:13;7.70;99.90
18103;DHT22;9178;51.120;6.192;2023-02-08T10:39:41;7.30;99.90
18103;DHT22;9178;51.120;6.192;2023-02-08T10:42:13;6.70;99.90
18103;DHT22;9178;51.120;6.192;2023-02-08T10:44:52;6.40;99.90
18103;DHT22;9178;51.120;6.192;2023-02-08T10:47:31;6.60;99.90
18103;DHT22;9178;51.120;6.192;2023-02-08T10:50:02;6.70;99.90
18103;DHT22;9178;51.120;6.192;2023-02-08T10:52:31;7.10;99.90
18103;DHT22;9178;51.120;6.192;2023-02-08T10:54:58;7.40;99.90
18103;DHT22;9178;51.120;6.192;2023-02-08T10:57:28;7.50;99.90
18103;DHT22;9178;51.120;6.192;2023-02-08T10:59:59;7.80;99.90
18103;DHT22;9178;51.120;6.192;2023-02-08T11:02:31;8.70;99.90
18103;DHT22;9178;51.120;6.192;2023-02-08T11:05:02;9.70;99.70
18103;DHT22;9178;51.120;6.192;2023-02-08T11:07:30;10.10;99.90
18103;DHT22;9178;51.120;6.192;2023-02-08T11:10:14;10.90;99.90
18103;DHT22;9178;51.120;6.192;2023-02-08T11:12:42;11.60;99.90
18103;DHT22;9178;51.120;6.192;2023-02-08T11:15:24;11.80;97.70
18103;DHT22;9178;51.120;6.192;2023-02-08T11:17:54;11.50;95.90
18103;DHT22;9178;51.120;6.192;2023-02-08T11:20:28;11.00;97.90
18103;DHT22;9178;51.120;6.192;2023-02-08T11:22:57;10.90;95.40
18103;DHT22;9178;51.120;6.192;2023-02-08T11:25:33;10.80;95.30
18103;DHT22;9178;51.120;6.192;2023-02-08T11:28:00;10.60;95.30
18103;DHT22;9178;51.120;6.192;2023-02-08T11:30:27;10.70;95.50
18103;DHT22;9178;51.120;6.192;2023-02-08T11:33:17;10.60;92.60
18103;DHT22;9178;51.120;6.192;2023-02-08T11:36:03;10.20;93.90
18103;DHT22;9178;51.120;6.192;2023-02-08T11:38:32;10.40;93.10
18103;DHT22;9178;51.120;6.192;2023-02-08T11:41:03;10.10;92.50
18103;DHT22;9178;51.120;6.192;2023-02-08T11:43:32;9.60;91.60
18103;DHT22;9178;51.120;6.192;2023-02-08T11:46:01;9.10;92.90
18103;DHT22;9178;51.120;6.192;2023-02-08T11:48:36;8.70;92.90
18103;DHT22;9178;51.120;6.192;2023-02-08T11:51:07;8.30;91.50
18103;DHT22;9178;51.120;6.192;2023-02-08T11:53:36;8.40;92.50
18103;DHT22;9178;51.120;6.192;2023-02-08T11:56:13;9.30;92.60
18103;DHT22;9178;51.120;6.192;2023-02-08T11:58:42;10.50;92.80
18103;DHT22;9178;51.120;6.192;2023-02-08T12:01:20;11.40;90.40
18103;DHT22;9178;51.120;6.192;2023-02-08T12:03:51;12.50;91.20
18103;DHT22;9178;51.120;6.192;2023-02-08T12:06:43;13.30;93.40
18103;DHT22;9178;51.120;6.192;2023-02-08T12:09:26;14.30;81.50
18103;DHT22;9178;51.120;6.192;2023-02-08T12:12:04;14.80;85.40
18103;DHT22;9178;51.120;6.192;2023-02-08T12:14:45;14.50;82.70
18103;DHT22;9178;51.120;6.192;2023-02-08T12:17:26;14.00;83.10
18103;DHT22;9178;51.120;6.192;2023-02-08T12:20:19;13.30;86.10
18103;DHT22;9178;51.120;6.192;2023-02-08T12:22:57;13.50;87.60
18103;DHT22;9178;51.120;6.192;2023-02-08T12:25:31;14.10;82.50
18103;DHT22;9178;51.120;6.192;2023-02-08T12:28:09;14.10;82.10
18103;DHT22;9178;51.120;6.192;2023-02-08T12:30:44;14.10;84.00
18103;DHT22;9178;51.120;6.192;2023-02-08T12:33:31;13.30;82.00
18103;DHT22;9178;51.120;6.192;2023-02-08T12:36:19;12.50;82.30
18103;DHT22;9178;51.120;6.192;2023-02-08T12:39:09;11.20;79.00
18103;DHT22;9178;51.120;6.192;2023-02-08T12:42:09;9.90;81.80
18103;DHT22;9178;51.120;6.192;2023-02-08T12:44:47;9.70;85.40
18103;DHT22;9178;51.120;6.192;2023-02-08T12:47:29;9.40;79.70
18103;DHT22;9178;51.120;6.192;2023-02-08T12:50:05;9.10;79.80
18103;DHT22;9178;51.120;6.192;2023-02-08T12:52:37;9.40;83.10
18103;DHT22;9178;51.120;6.192;2023-02-08T12:55:14;9.80;81.40
18103;DHT22;9178;51.120;6.192;2023-02-08T12:57:49;9.90;78.50
18103;DHT22;9178;51.120;6.192;2023-02-08T13:00:21;9.50;80.80
18103;DHT22;9178;51.120;6.192;2023-02-08T13:02:56;9.90;81.00
18103;DHT22;9178;51.120;6.192;2023-02-08T13:05:28;10.60;77.20
18103;DHT22;9178;51.120;6.192;2023-02-08T13:08:02;10.70;74.10
18103;DHT22;9178;51.120;6.192;2023-02-08T13:10:33;10.90;80.90
18103;DHT22;9178;51.120;6.192;2023-02-08T13:13:07;11.40;82.50
18103;DHT22;9178;51.120;6.192;2023-02-08T13:15:40;12.00;79.40
18103;DHT22;9178;51.120;6.192;2023-02-08T13:18:13;12.00;76.70
18103;DHT22;9178;51.120;6.192;2023-02-08T13:20:44;11.50;74.10
18103;DHT22;9178;51.120;6.192;2023-02-08T13:23:17;11.50;73.90
18103;DHT22;9178;51.120;6.192;2023-02-08T13:25:48;11.40;69.40
18103;DHT22;9178;51.120;6.192;2023-02-08T13:28:18;11.10;69.10
18103;DHT22;9178;51.120;6.192;2023-02-08T13:30:55;10.70;69.50
18103;DHT22;9178;51.120;6.192;2023-02-08T13:33:30;10.40;73.20
18103;DHT22;9178;51.120;6.192;2023-02-08T13:35:58;10.00;75.00
18103;DHT22;9178;51.120;6.192;2023-02-08T13:38:28;9.80;77.30
18103;DHT22;9178;51.120;6.192;2023-02-08T13:41:07;9.60;74.90
18103;DHT22;9178;51.120;6.192;2023-02-08T13:43:42;9.80;74.70
18103;DHT22;9178;51.120;6.192;2023-02-08T13:46:12;10.20;69.30
18103;DHT22;9178;51.120;6.192;2023-02-08T13:48:44;9.80;71.40
18103;DHT22;9178;51.120;6.192;2023-02-08T13:51:49;9.40;71.50
18103;DHT22;9178;51.120;6.192;2023-02-08T13:54:17;9.00;69.50
18103;DHT22;9178;51.120;6.192;2023-02-08T13:56:47;8.70;72.70
18103;DHT22;9178;51.120;6.192;2023-02-08T13:59:29;8.50;73.80
18103;DHT22;9178;51.120;6.192;2023-02-08T14:02:25;8.30;75.30
18103;DHT22;9178;51.120;6.192;2023-02-08T14:04:56;8.20;74.00
18103;DHT22;9178;51.120;6.192;2023-02-08T14:07:32;8.20;73.40
18103;DHT22;9178;51.120;6.192;2023-02-08T14:10:09;8.10;73.90
18103;DHT22;9178;51.120;6.192;2023-02-08T14:12:48;8.00;73.90
18103;DHT22;9178;51.120;6.192;2023-02-08T14:15:24;8.10;73.20
18103;DHT22;9178;51.120;6.192;2023-02-08T14:17:53;8.20;74.50
18103;DHT22;9178;51.120;6.192;2023-02-08T14:20:26;8.30;74.30
18103;DHT22;9178;51.120;6.192;2023-02-08T14:22:56;8.30;72.60
18103;DHT22;9178;51.120;6.192;2023-02-08T14:25:26;8.30;72.50
18103;DHT22;9178;51.120;6.192;2023-02-08T14:27:56;8.50;74.90
18103;DHT22;9178;51.120;6.192;2023-02-08T14:30:26;8.40;72.20
18103;DHT22;9178;51.120;6.192;2023-02-08T14:33:09;8.30;73.70
18103;DHT22;9178;51.120;6.192;2023-02-08T14:35:48;8.20;77.00
18103;DHT22;9178;51.120;6.192;2023-02-08T14:41:47;7.70;81.40
18103;DHT22;9178;51.120;6.192;2023-02-08T14:50:53;7.10;82.30
18103;DHT22;9178;51.120;6.192;2023-02-08T14:53:25;7.00;83.40
18103;DHT22;9178;51.120;6.192;2023-02-08T14:55:57;7.10;83.00
18103;DHT22;9178;51.120;6.192;2023-02-08T14:58:28;7.10;83.20
18103;DHT22;9178;51.120;6.192;2023-02-08T15:00:58;7.10;84.10
18103;DHT22;9178;51.120;6.192;2023-02-08T15:03:27;7.10;82.90
18103;DHT22;9178;51.120;6.192;2023-02-08T15:09:05;7.10;82.90
18103;DHT22;9178;51.120;6.192;2023-02-08T15:11:38;7.10;83.80
18103;DHT22;9178;51.120;6.192;2023-02-08T15:14:06;7.10;83.80
18103;DHT22;9178;51.120;6.192;2023-02-08T15:16:43;6.90;83.70
18103;DHT22;9178;51.120;6.192;2023-02-08T15:19:19;6.80;84.50
18103;DHT22;9178;51.120;6.192;2023-02-08T15:21:47;6.70;84.00
18103;DHT22;9178;51.120;6.192;2023-02-08T15:24:17;6.60;83.80
18103;DHT22;9178;51.120;6.192;2023-02-08T15:26:45;6.50;85.30
18103;DHT22;9178;51.120;6.192;2023-02-08T15:29:21;6.40;84.80
18103;DHT22;9178;51.120;6.192;2023-02-08T15:31:48;6.40;84.80
18103;DHT22;9178;51.120;6.192;2023-02-08T15:34:17;6.50;86.50
18103;DHT22;9178;51.120;6.192;2023-02-08T15:36:48;6.60;86.50
18103;DHT22;9178;51.120;6.192;2023-02-08T15:39:26;6.50;86.40
18103;DHT22;9178;51.120;6.192;2023-02-08T15:41:56;6.50;86.70
18103;DHT22;9178;51.120;6.192;2023-02-08T15:44:26;6.40;86.90
18103;DHT22;9178;51.120;6.192;2023-02-08T15:46:55;6.20;87.30
18103;DHT22;9178;51.120;6.192;2023-02-08T15:49:27;6.10;86.70
18103;DHT22;9178;51.120;6.192;2023-02-08T15:51:55;6.00;88.10
18103;DHT22;9178;51.120;6.192;2023-02-08T15:54:24;6.00;88.00
18103;DHT22;9178;51.120;6.192;2023-02-08T15:56:55;5.90;88.60
18103;DHT22;9178;51.120;6.192;2023-02-08T15:59:26;5.80;88.90
18103;DHT22;9178;51.120;6.192;2023-02-08T16:01:54;5.70;89.70
18103;DHT22;9178;51.120;6.192;2023-02-08T16:04:23;5.70;89.50
18103;DHT22;9178;51.120;6.192;2023-02-08T16:06:53;5.60;88.90
18103;DHT22;9178;51.120;6.192;2023-02-08T16:09:24;5.50;90.00
18103;DHT22;9178;51.120;6.192;2023-02-08T16:11:55;5.40;90.40
18103;DHT22;9178;51.120;6.192;2023-02-08T16:14:24;5.40;90.30
18103;DHT22;9178;51.120;6.192;2023-02-08T16:16:54;5.30;90.30
18103;DHT22;9178;51.120;6.192;2023-02-08T16:19:23;5.30;90.60
18103;DHT22;9178;51.120;6.192;2023-02-08T16:21:52;5.20;91.20
18103;DHT22;9178;51.120;6.192;2023-02-08T16:24:31;5.10;91.60
18103;DHT22;9178;51.120;6.192;2023-02-08T16:27:01;5.10;91.60
18103;DHT22;9178;51.120;6.192;2023-02-08T16:29:30;4.90;91.70
18103;DHT22;9178;51.120;6.192;2023-02-08T16:32:03;4.80;92.00
18103;DHT22;9178;51.120;6.192;2023-02-08T16:34:32;4.70;92.20
18103;DHT22;9178;51.120;6.192;2023-02-08T16:37:00;4.60;92.20